createdAt,value
2022-11-05T00:01:41.584Z,113.53
2022-11-05T00:04:42.354Z,120.80
2022-11-05T00:07:34.258Z,111.57
2022-11-05T00:10:07.300Z,110.80
2022-11-05T00:12:52.739Z,91.23
2022-11-05T00:15:37.868Z,90.27
2022-11-05T00:18:06.295Z,79.53
2022-11-05T00:20:34.679Z,76.50
2022-11-05T00:23:20.638Z,79.27
2022-11-05T00:25:57.597Z,68.33
2022-11-05T00:28:26.044Z,73.77
2022-11-05T00:30:54.767Z,77.63
2022-11-05T00:33:22.785Z,75.60
2022-11-05T00:35:51.372Z,77.00
2022-11-05T00:38:19.466Z,78.33
2022-11-05T00:40:47.711Z,72.60
2022-11-05T00:43:34.423Z,73.00
2022-11-05T00:46:02.473Z,71.63
2022-11-05T00:48:47.830Z,59.57
2022-11-05T00:51:15.881Z,59.87
2022-11-05T00:53:44.033Z,61.80
2022-11-05T00:56:12.125Z,62.27
2022-11-05T00:58:41.584Z,60.13
2022-11-05T01:01:12.219Z,63.10
2022-11-05T01:03:45.149Z,63.17
2022-11-05T01:06:18.574Z,67.37
2022-11-05T01:08:47.673Z,62.63
2022-11-05T01:11:33.678Z,57.57
2022-11-05T01:14:05.228Z,63.33
2022-11-05T01:16:33.670Z,60.33
2022-11-05T01:19:02.231Z,66.73
2022-11-05T01:21:30.368Z,63.47
2022-11-05T01:23:58.678Z,60.33
2022-11-05T01:26:27.872Z,69.13
2022-11-05T01:28:57.715Z,55.00
2022-11-05T01:31:28.695Z,62.90
2022-11-05T01:33:56.855Z,61.00
2022-11-05T01:36:24.895Z,62.57
2022-11-05T01:38:52.919Z,61.40
2022-11-05T01:41:21.068Z,67.77
2022-11-05T01:43:51.784Z,65.10
2022-11-05T01:46:23.199Z,65.53
2022-11-05T01:48:58.569Z,63.10
2022-11-05T01:51:30.239Z,68.23
2022-11-05T01:54:02.415Z,78.50
2022-11-05T01:56:33.506Z,68.80
2022-11-05T01:59:04.774Z,73.93
2022-11-05T02:01:33.398Z,65.57
2022-11-05T02:04:05.625Z,74.63
2022-11-05T02:06:38.003Z,71.97
2022-11-05T02:09:10.068Z,71.43
2022-11-05T02:11:38.157Z,74.23
2022-11-05T02:14:07.023Z,68.57
2022-11-05T02:16:41.600Z,68.77
2022-11-05T02:19:46.188Z,60.93
2022-11-05T02:22:39.048Z,62.40
2022-11-05T02:25:25.408Z,68.90
2022-11-05T02:28:18.089Z,70.83
2022-11-05T02:30:55.078Z,67.57
2022-11-05T02:33:43.011Z,60.37
2022-11-05T02:36:26.274Z,64.87
2022-11-05T02:39:08.333Z,56.03
2022-11-05T02:41:47.226Z,61.73
2022-11-05T02:44:24.189Z,58.93
2022-11-05T02:46:59.675Z,66.03
2022-11-05T02:49:37.935Z,64.47
2022-11-05T02:52:10.756Z,67.07
2022-11-05T02:54:43.993Z,67.60
2022-11-05T02:57:12.052Z,71.80
2022-11-05T02:59:40.179Z,60.63
2022-11-05T03:02:09.945Z,62.73
2022-11-05T03:04:38.084Z,63.70
2022-11-05T03:07:29.426Z,60.50
2022-11-05T03:10:14.806Z,56.47
2022-11-05T03:12:53.494Z,62.30
2022-11-05T03:15:34.563Z,59.20
2022-11-05T03:18:13.103Z,56.33
2022-11-05T03:20:48.382Z,56.47
2022-11-05T03:23:25.579Z,53.53
2022-11-05T03:26:00.095Z,48.77
2022-11-05T03:28:30.990Z,53.00
2022-11-05T03:31:00.429Z,51.80
2022-11-05T03:33:34.784Z,47.90
2022-11-05T03:36:08.389Z,64.33
2022-11-05T03:38:41.804Z,61.67
2022-11-05T03:41:13.243Z,57.10
2022-11-05T03:43:46.236Z,56.63
2022-11-05T03:46:19.740Z,57.77
2022-11-05T03:48:53.064Z,55.77
2022-11-05T03:51:30.815Z,56.60
2022-11-05T03:54:01.328Z,54.57
2022-11-05T03:56:34.252Z,56.43
2022-11-05T03:59:03.931Z,52.93
2022-11-05T04:01:33.908Z,50.13
2022-11-05T04:04:03.643Z,56.77
2022-11-05T04:06:49.067Z,53.80
2022-11-05T04:09:34.749Z,53.23
2022-11-05T04:12:20.605Z,61.10
2022-11-05T04:14:50.543Z,59.27
2022-11-05T04:17:17.600Z,55.20
2022-11-05T04:20:04.886Z,54.17
2022-11-05T04:22:52.251Z,64.73
2022-11-05T04:25:21.838Z,56.33
2022-11-05T04:27:51.091Z,61.40
2022-11-05T04:30:19.498Z,54.50
2022-11-05T04:32:59.944Z,64.50
2022-11-05T04:35:31.446Z,56.73
2022-11-05T04:37:59.569Z,65.17
2022-11-05T04:40:28.118Z,62.67
2022-11-05T04:42:56.783Z,62.03
2022-11-05T04:45:25.198Z,59.80
2022-11-05T04:47:54.307Z,60.87
2022-11-05T04:50:23.034Z,66.20
2022-11-05T04:52:52.476Z,61.47
2022-11-05T04:55:20.742Z,53.97
2022-11-05T04:57:50.499Z,59.90
2022-11-05T05:00:19.552Z,62.77
2022-11-05T05:02:48.851Z,60.90
2022-11-05T05:05:17.042Z,70.27
2022-11-05T05:07:45.107Z,54.20
2022-11-05T05:10:14.605Z,61.77
2022-11-05T05:12:42.699Z,57.00
2022-11-05T05:15:10.795Z,59.60
2022-11-05T05:17:39.697Z,65.83
2022-11-05T05:20:25.801Z,62.70
2022-11-05T05:22:54.629Z,56.53
2022-11-05T05:25:24.361Z,59.53
2022-11-05T05:27:52.701Z,57.53
2022-11-05T05:30:20.840Z,62.10
2022-11-05T05:32:49.682Z,60.90
2022-11-05T05:35:18.172Z,50.43
2022-11-05T05:37:46.359Z,57.33
2022-11-05T05:40:14.579Z,55.27
2022-11-05T05:42:44.487Z,61.03
2022-11-05T05:45:14.187Z,57.93
2022-11-05T05:47:42.259Z,58.97
2022-11-05T05:50:10.333Z,59.10
2022-11-05T05:52:38.517Z,61.97
2022-11-05T05:55:07.345Z,60.67
2022-11-05T05:57:35.618Z,58.67
2022-11-05T06:00:06.222Z,54.90
2022-11-05T06:02:34.428Z,56.60
2022-11-05T06:05:02.587Z,56.07
2022-11-05T06:07:35.966Z,63.83
2022-11-05T06:10:05.802Z,61.40
2022-11-05T06:12:34.052Z,52.73
2022-11-05T06:15:02.093Z,58.23
2022-11-05T06:17:31.558Z,54.63
2022-11-05T06:19:59.559Z,62.33
2022-11-05T06:22:27.591Z,66.33
2022-11-05T06:24:55.580Z,58.03
2022-11-05T06:27:23.730Z,54.80
2022-11-05T06:29:51.799Z,52.80
2022-11-05T06:32:20.033Z,54.20
2022-11-05T06:34:49.497Z,58.13
2022-11-05T06:37:17.648Z,53.10
2022-11-05T06:39:45.722Z,55.40
2022-11-05T06:42:18.668Z,56.53
2022-11-05T06:44:47.245Z,53.50
2022-11-05T06:47:15.646Z,56.27
2022-11-05T06:49:43.775Z,64.27
2022-11-05T06:52:13.980Z,50.90
2022-11-05T06:54:42.472Z,45.70
2022-11-05T06:57:10.888Z,47.90
2022-11-05T06:59:39.423Z,53.97
2022-11-05T07:02:08.115Z,53.37
2022-11-05T07:04:36.432Z,61.47
2022-11-05T07:07:04.879Z,54.70
2022-11-05T07:09:34.449Z,49.90
2022-11-05T07:12:02.478Z,51.70
2022-11-05T07:14:30.745Z,54.23
2022-11-05T07:16:59.218Z,57.87
2022-11-05T07:19:27.307Z,60.57
2022-11-05T07:21:55.261Z,50.83
2022-11-05T07:24:23.231Z,50.27
2022-11-05T07:26:52.676Z,49.20
2022-11-05T07:29:20.765Z,53.23
2022-11-05T07:31:48.834Z,57.43
2022-11-05T07:34:16.837Z,59.53
2022-11-05T07:36:45.108Z,54.83
2022-11-05T07:39:13.188Z,51.43
2022-11-05T07:41:41.194Z,61.27
2022-11-05T07:44:11.729Z,54.50
2022-11-05T07:46:39.833Z,53.97
2022-11-05T07:49:07.840Z,59.40
2022-11-05T07:51:36.220Z,54.10
2022-11-05T07:54:04.671Z,60.30
2022-11-05T07:56:32.867Z,59.17
2022-11-05T07:59:01.367Z,61.43
2022-11-05T08:01:31.218Z,49.60
2022-11-05T08:03:59.426Z,55.60
2022-11-05T08:06:27.811Z,48.30
2022-11-05T08:08:56.036Z,57.60
2022-11-05T08:11:24.427Z,51.37
2022-11-05T08:13:52.394Z,49.83
2022-11-05T08:16:21.134Z,52.20
2022-11-05T08:18:50.827Z,51.90
2022-11-05T08:21:18.866Z,56.07
2022-11-05T08:23:47.630Z,51.23
2022-11-05T08:26:15.758Z,54.40
2022-11-05T08:28:43.850Z,51.13
2022-11-05T08:31:12.133Z,52.33
2022-11-05T08:33:40.173Z,52.00
2022-11-05T08:36:09.836Z,48.43
2022-11-05T08:38:38.011Z,54.60
2022-11-05T08:41:06.189Z,57.97
2022-11-05T08:43:34.323Z,59.70
2022-11-05T08:46:02.771Z,56.33
2022-11-05T08:48:30.849Z,54.40
2022-11-05T08:51:01.927Z,57.03
2022-11-05T08:53:31.379Z,59.77
2022-11-05T08:56:00.649Z,60.80
2022-11-05T08:58:29.112Z,57.60
2022-11-05T09:01:03.374Z,48.83
2022-11-05T09:03:32.663Z,55.97
2022-11-05T09:06:00.715Z,51.27
2022-11-05T09:08:29.010Z,56.77
2022-11-05T09:10:58.497Z,52.13
2022-11-05T09:13:27.190Z,51.80
2022-11-05T09:15:55.626Z,50.07
2022-11-05T09:18:23.827Z,54.33
2022-11-05T09:20:51.922Z,58.67
2022-11-05T09:23:19.997Z,55.53
2022-11-05T09:25:48.110Z,46.60
2022-11-05T09:28:20.316Z,52.53
2022-11-05T09:30:50.012Z,61.47
2022-11-05T09:33:19.425Z,49.20
2022-11-05T09:35:47.763Z,49.23
2022-11-05T09:38:16.300Z,53.53
2022-11-05T09:40:54.363Z,49.87
2022-11-05T09:43:31.961Z,43.40
2022-11-05T09:46:05.956Z,48.80
2022-11-05T09:48:35.413Z,51.50
2022-11-05T09:51:06.087Z,46.43
2022-11-05T09:53:40.094Z,45.27
2022-11-05T09:56:19.327Z,45.38
2022-11-05T09:58:51.928Z,47.70
2022-11-05T10:01:25.460Z,42.53
2022-11-05T10:03:57.213Z,46.63
2022-11-05T10:06:28.077Z,49.73
2022-11-05T10:09:03.479Z,41.27
2022-11-05T10:11:36.876Z,50.73
2022-11-05T10:14:13.851Z,47.00
2022-11-05T10:16:44.972Z,37.03
2022-11-05T10:19:22.047Z,46.85
2022-11-05T10:22:06.104Z,39.47
2022-11-05T10:24:35.002Z,45.75
2022-11-05T10:27:03.569Z,43.20
2022-11-05T10:29:36.207Z,38.92
2022-11-05T10:32:07.577Z,41.78
2022-11-05T10:34:38.458Z,43.17
2022-11-05T10:37:07.140Z,41.80
2022-11-05T10:39:36.043Z,48.75
2022-11-05T10:42:25.201Z,43.53
2022-11-05T10:45:01.177Z,46.13
2022-11-05T10:47:52.032Z,40.75
2022-11-05T10:50:22.806Z,50.53
2022-11-05T10:52:58.516Z,47.58
2022-11-05T10:55:30.269Z,47.67
2022-11-05T10:58:09.962Z,40.67
2022-11-05T11:00:39.752Z,43.72
2022-11-05T11:03:35.598Z,40.75
2022-11-05T11:06:07.775Z,43.60
2022-11-05T11:08:37.827Z,45.35
2022-11-05T11:11:09.102Z,42.30
2022-11-05T11:13:53.187Z,49.05
2022-11-05T11:16:24.798Z,39.47
2022-11-05T11:18:55.405Z,40.58
2022-11-05T11:21:26.372Z,43.80
2022-11-05T11:23:58.960Z,43.20
2022-11-05T11:26:30.170Z,40.25
2022-11-05T11:29:01.679Z,44.33
2022-11-05T11:31:33.565Z,41.35
2022-11-05T11:34:07.681Z,41.65
2022-11-05T11:36:39.721Z,43.20
2022-11-05T11:39:12.982Z,39.08
2022-11-05T11:41:44.204Z,37.92
2022-11-05T11:44:17.681Z,38.78
2022-11-05T11:46:51.927Z,32.55
2022-11-05T11:49:34.529Z,37.17
2022-11-05T11:52:06.581Z,43.05
2022-11-05T11:54:36.005Z,37.95
2022-11-05T11:57:04.703Z,38.53
2022-11-05T12:00:02.389Z,38.08
2022-11-05T12:02:54.851Z,40.33
2022-11-05T12:05:38.336Z,38.05
2022-11-05T12:08:22.144Z,43.67
2022-11-05T12:11:00.088Z,43.42
2022-11-05T12:13:57.176Z,38.55
2022-11-05T12:16:45.662Z,41.13
2022-11-05T12:19:33.060Z,36.10
2022-11-05T12:22:07.043Z,35.67
2022-11-05T12:25:07.230Z,45.15
2022-11-05T12:27:51.443Z,38.22
2022-11-05T12:30:21.787Z,40.90
2022-11-05T12:33:15.216Z,35.60
2022-11-05T12:36:03.946Z,36.40
2022-11-05T12:38:50.033Z,41.28
2022-11-05T12:41:26.856Z,40.65
2022-11-05T12:44:10.202Z,31.65
2022-11-05T12:46:47.733Z,31.85
2022-11-05T12:49:33.859Z,32.67
2022-11-05T12:52:16.532Z,39.47
2022-11-05T12:55:01.201Z,32.22
2022-11-05T12:57:31.045Z,37.42
2022-11-05T13:00:07.669Z,40.13
2022-11-05T13:02:41.875Z,46.55
2022-11-05T13:05:17.678Z,37.53
2022-11-05T13:07:52.612Z,32.25
2022-11-05T13:10:29.146Z,36.83
2022-11-05T13:13:06.135Z,33.30
2022-11-05T13:15:40.006Z,31.60
2022-11-05T13:18:14.824Z,35.95
2022-11-05T13:20:48.030Z,35.22
2022-11-05T13:23:24.231Z,38.53
2022-11-05T13:25:57.033Z,34.83
2022-11-05T13:28:37.113Z,37.13
2022-11-05T13:31:11.309Z,35.30
2022-11-05T13:33:43.780Z,42.22
2022-11-05T13:36:33.324Z,33.33
2022-11-05T13:39:10.960Z,39.95
2022-11-05T13:42:11.234Z,39.80
2022-11-05T13:45:06.713Z,36.33
2022-11-05T13:47:54.806Z,34.95
2022-11-05T13:51:01.458Z,38.45
2022-11-05T13:54:00.500Z,40.42
2022-11-05T13:56:47.938Z,37.63
2022-11-05T13:59:46.569Z,38.78
2022-11-05T14:02:19.169Z,40.30
2022-11-05T14:04:49.102Z,41.33
2022-11-05T14:07:22.715Z,51.03
2022-11-05T14:09:56.344Z,44.83
2022-11-05T14:12:31.181Z,40.15
2022-11-05T14:15:06.201Z,47.70
2022-11-05T14:17:54.418Z,48.78
2022-11-05T14:21:02.267Z,48.90
2022-11-05T14:23:51.977Z,42.85
2022-11-05T14:26:24.067Z,47.55
2022-11-05T14:29:25.170Z,42.88
2022-11-05T14:32:08.898Z,38.25
2022-11-05T14:34:49.717Z,42.95
2022-11-05T14:37:28.002Z,46.47
2022-11-05T14:39:58.042Z,44.78
2022-11-05T14:42:29.316Z,49.38
2022-11-05T14:45:03.448Z,48.40
2022-11-05T14:47:36.951Z,41.95
2022-11-05T14:50:11.671Z,44.85
2022-11-05T14:52:41.844Z,48.78
2022-11-05T14:55:27.506Z,45.58
2022-11-05T14:58:34.136Z,49.15
2022-11-05T15:01:05.442Z,45.33
2022-11-05T15:03:47.475Z,50.60
2022-11-05T15:06:35.017Z,54.17
2022-11-05T15:09:33.833Z,47.97
2022-11-05T15:12:15.564Z,58.15
2022-11-05T15:14:56.108Z,46.15
2022-11-05T15:17:30.323Z,45.47
2022-11-05T15:20:17.909Z,62.92
2022-11-05T15:22:49.533Z,58.38
2022-11-05T15:25:24.681Z,71.22
2022-11-05T15:28:06.022Z,59.53
2022-11-05T15:30:34.193Z,57.92
2022-11-05T15:33:20.094Z,61.90
2022-11-05T15:35:48.654Z,63.97
2022-11-05T15:38:27.538Z,64.25
2022-11-05T15:41:01.179Z,60.35
2022-11-05T15:43:29.548Z,61.90
2022-11-05T15:46:02.347Z,64.25
2022-11-05T15:48:32.662Z,93.53
2022-11-05T15:51:01.261Z,80.15
2022-11-05T15:53:51.502Z,76.37
2022-11-05T15:56:29.409Z,75.15
2022-11-05T15:59:02.094Z,74.67
2022-11-05T16:01:33.168Z,68.60
2022-11-05T16:04:12.597Z,72.03
2022-11-05T16:06:43.991Z,74.65
2022-11-05T16:09:23.216Z,73.63
2022-11-05T16:12:12.979Z,73.20
2022-11-05T16:14:41.947Z,59.88
2022-11-05T16:17:20.970Z,59.70
2022-11-05T16:19:51.549Z,63.33
2022-11-05T16:22:20.140Z,64.23
2022-11-05T16:24:50.504Z,52.40
2022-11-05T16:27:21.175Z,60.28
2022-11-05T16:29:52.338Z,50.73
2022-11-05T16:32:30.227Z,52.13
2022-11-05T16:35:02.346Z,61.50
2022-11-05T16:37:38.000Z,50.13
2022-11-05T16:40:14.093Z,53.30
2022-11-05T16:42:43.039Z,54.60
2022-11-05T16:45:14.947Z,51.57
2022-11-05T16:47:43.992Z,58.13
2022-11-05T16:50:25.316Z,48.77
2022-11-05T16:52:53.997Z,47.47
2022-11-05T16:55:21.976Z,53.27
2022-11-05T16:57:53.551Z,54.20
2022-11-05T17:00:22.739Z,53.20
2022-11-05T17:02:51.355Z,52.90
2022-11-05T17:05:24.595Z,60.17
2022-11-05T17:07:56.230Z,45.73
2022-11-05T17:10:26.392Z,49.00
2022-11-05T17:12:54.895Z,54.67
2022-11-05T17:15:26.335Z,59.43
2022-11-05T17:17:55.380Z,47.20
2022-11-05T17:20:40.268Z,56.53
2022-11-05T17:23:10.968Z,51.50
2022-11-05T17:25:40.212Z,54.63
2022-11-05T17:28:09.939Z,53.00
2022-11-05T17:30:41.168Z,51.27
2022-11-05T17:33:10.347Z,44.50
2022-11-05T17:35:41.316Z,46.47
2022-11-05T17:38:09.669Z,45.43
2022-11-05T17:40:38.330Z,48.83
2022-11-05T17:43:07.359Z,52.53
2022-11-05T17:45:35.571Z,35.23
2022-11-05T17:48:05.218Z,39.47
2022-11-05T17:50:33.254Z,41.23
2022-11-05T17:53:02.647Z,51.43
2022-11-05T17:55:30.724Z,52.03
2022-11-05T17:57:58.917Z,49.60
2022-11-05T18:00:27.653Z,48.90
2022-11-05T18:02:55.856Z,53.93
2022-11-05T18:05:27.837Z,57.40
2022-11-05T18:07:56.493Z,49.63
2022-11-05T18:10:26.332Z,48.53
2022-11-05T18:12:54.333Z,50.23
2022-11-05T18:15:22.638Z,50.10
2022-11-05T18:17:50.946Z,57.60
2022-11-05T18:20:20.657Z,69.03
2022-11-05T18:22:51.291Z,65.00
2022-11-05T18:25:19.801Z,80.47
2022-11-05T18:27:49.162Z,62.73
2022-11-05T18:30:17.356Z,73.73
2022-11-05T18:32:48.605Z,72.10
2022-11-05T18:35:17.070Z,67.50
2022-11-05T18:37:45.394Z,72.90
2022-11-05T18:40:13.731Z,65.93
2022-11-05T18:42:41.781Z,72.03
2022-11-05T18:45:12.804Z,73.33
2022-11-05T18:47:41.254Z,67.03
2022-11-05T18:50:11.701Z,82.40
2022-11-05T18:52:39.749Z,80.27
2022-11-05T18:55:09.292Z,76.07
2022-11-05T18:57:37.474Z,76.47
2022-11-05T19:00:06.489Z,78.37
2022-11-05T19:02:36.139Z,71.13
2022-11-05T19:05:27.968Z,75.93
2022-11-05T19:07:52.698Z,73.03
2022-11-05T19:10:20.852Z,74.73
2022-11-05T19:12:48.950Z,67.07
2022-11-05T19:15:17.200Z,70.20
2022-11-05T19:17:46.976Z,81.93
2022-11-05T19:20:15.093Z,73.83
2022-11-05T19:22:43.170Z,68.07
2022-11-05T19:25:11.775Z,81.03
2022-11-05T19:27:39.889Z,67.40
2022-11-05T19:30:09.060Z,69.10
2022-11-05T19:32:37.334Z,78.37
2022-11-05T19:35:07.439Z,68.67
2022-11-05T19:37:35.693Z,73.73
2022-11-05T19:40:03.748Z,69.97
2022-11-05T19:42:31.794Z,72.37
2022-11-05T19:45:16.792Z,65.87
2022-11-05T19:47:47.853Z,81.17
2022-11-05T19:50:17.374Z,79.63
2022-11-05T19:52:45.488Z,72.40
2022-11-05T19:55:13.509Z,71.97
2022-11-05T19:57:41.880Z,73.10
2022-11-05T20:00:11.912Z,72.50
2022-11-05T20:02:40.064Z,67.53
2022-11-05T20:05:08.719Z,74.07
2022-11-05T20:07:38.128Z,67.40
2022-11-05T20:10:07.292Z,71.53
2022-11-05T20:12:36.013Z,74.27
2022-11-05T20:15:05.017Z,73.20
2022-11-05T20:17:33.124Z,64.30
2022-11-05T20:20:01.249Z,72.13
2022-11-05T20:22:29.315Z,69.37
2022-11-05T20:24:59.411Z,71.80
2022-11-05T20:27:27.533Z,67.40
2022-11-05T20:29:55.685Z,71.77
2022-11-05T20:32:23.720Z,74.87
2022-11-05T20:34:51.887Z,74.50
2022-11-05T20:37:20.186Z,68.00
2022-11-05T20:39:48.306Z,71.40
2022-11-05T20:42:17.929Z,64.83
2022-11-05T20:44:45.941Z,64.83
2022-11-05T20:47:14.049Z,64.17
2022-11-05T20:49:42.198Z,71.00
2022-11-05T20:52:10.249Z,63.43
2022-11-05T20:54:38.485Z,65.90
2022-11-05T20:57:06.730Z,60.97
2022-11-05T20:59:36.738Z,59.37
2022-11-05T21:02:05.133Z,57.13
2022-11-05T21:04:33.581Z,60.63
2022-11-05T21:07:01.652Z,50.47
2022-11-05T21:09:30.198Z,46.97
2022-11-05T21:12:13.458Z,49.13
2022-11-05T21:14:44.547Z,52.10
2022-11-05T21:17:13.735Z,62.90
2022-11-05T21:19:42.133Z,52.97
2022-11-05T21:22:10.344Z,58.93
2022-11-05T21:24:38.672Z,59.53
2022-11-05T21:27:06.779Z,52.50
2022-11-05T21:29:34.806Z,55.60
2022-11-05T21:32:04.318Z,62.73
2022-11-05T21:34:32.303Z,58.43
2022-11-05T21:37:00.365Z,63.80
2022-11-05T21:39:29.098Z,58.10
2022-11-05T21:41:57.388Z,57.27
2022-11-05T21:44:25.402Z,54.97
2022-11-05T21:46:57.409Z,52.77
2022-11-05T21:49:27.723Z,55.60
2022-11-05T21:52:13.316Z,62.03
2022-11-05T21:54:57.964Z,56.97
2022-11-05T21:57:43.510Z,73.60
2022-11-05T22:00:12.840Z,90.20
2022-11-05T22:02:41.316Z,125.10
2022-11-05T22:05:12.303Z,102.20
2022-11-05T22:07:40.856Z,125.17
2022-11-05T22:10:16.223Z,136.13
2022-11-05T22:12:45.379Z,121.93
2022-11-05T22:15:13.812Z,128.50
2022-11-05T22:17:46.840Z,129.93
2022-11-05T22:20:17.174Z,134.47
2022-11-05T22:22:45.714Z,136.07
2022-11-05T22:25:14.839Z,135.73
2022-11-05T22:27:44.005Z,129.63
2022-11-05T22:30:13.379Z,148.33
2022-11-05T22:32:41.723Z,156.47
2022-11-05T22:35:10.666Z,150.53
2022-11-05T22:37:40.254Z,157.73
2022-11-05T22:40:09.771Z,149.60
2022-11-05T22:42:38.164Z,156.70
2022-11-05T22:45:07.423Z,144.03
2022-11-05T22:47:35.436Z,153.10
2022-11-05T22:50:03.531Z,165.73
2022-11-05T22:52:32.773Z,153.70
2022-11-05T22:55:03.890Z,146.53
2022-11-05T22:57:31.908Z,149.03
2022-11-05T22:59:59.993Z,142.40
2022-11-05T23:02:28.266Z,148.60
2022-11-05T23:04:56.389Z,136.47
2022-11-05T23:07:41.984Z,137.17
2022-11-05T23:10:29.278Z,135.87
2022-11-05T23:12:57.372Z,127.47
2022-11-05T23:15:42.061Z,114.87
2022-11-05T23:18:27.909Z,119.17
2022-11-05T23:21:13.672Z,100.33
2022-11-05T23:23:58.897Z,114.83
2022-11-05T23:26:45.005Z,127.03
2022-11-05T23:29:13.036Z,106.30
2022-11-05T23:31:57.978Z,128.67
2022-11-05T23:34:26.399Z,124.67
2022-11-05T23:37:11.636Z,116.20
2022-11-05T23:39:42.589Z,120.50
2022-11-05T23:42:29.947Z,131.10
2022-11-05T23:45:15.279Z,128.83
2022-11-05T23:48:01.232Z,133.93
2022-11-05T23:50:33.209Z,125.70
2022-11-05T23:53:05.293Z,135.23
2022-11-05T23:55:33.462Z,123.83
2022-11-05T23:58:02.935Z,133.30
